Time;durP1;ratioP1;P1;durP2;ratioP2;P2;SDS_P1;SDS_P2;PMS_P1;PMS_P2;Temp;Humidity;BMP_temperature;BMP_pressure;BME280_temperature;BME280_humidity;BME280_pressure;Samples;Min_cycle;Max_cycle;Signal;HPM_P1;HPM_P2
2022/04/24 00:02:13;;;;;;;10.00;8.00;;;;;;;15.25;61.31;100846.70;1587753;89;21099;-66
2022/04/24 00:04:41;;;;;;;9.20;7.60;;;;;;;15.24;61.22;100844.97;1591256;88;21131;-66
2022/04/24 00:07:10;;;;;;;9.43;8.33;;;;;;;15.16;61.30;100844.42;1637327;87;21118;-66
2022/04/24 00:09:37;;;;;;;11.45;8.93;;;;;;;15.07;61.61;100851.31;1645295;86;21022;-66
2022/04/24 00:12:06;;;;;;;12.45;8.85;;;;;;;15.00;61.83;100843.31;1602270;87;21068;-66
2022/04/24 00:14:35;;;;;;;14.63;10.18;;;;;;;14.97;62.05;100842.10;1605746;87;21531;-67
2022/04/24 00:17:04;;;;;;;12.93;9.70;;;;;;;14.97;62.22;100846.89;1598641;89;21064;-66
2022/04/24 00:19:32;;;;;;;15.55;10.00;;;;;;;15.01;62.23;100856.80;1601718;87;21035;-66
2022/04/24 00:21:59;;;;;;;12.20;10.18;;;;;;;15.03;62.29;100864.14;1602514;87;21559;-66
2022/04/24 00:24:26;;;;;;;11.73;9.98;;;;;;;15.02;62.26;100865.90;1590693;88;21061;-66
2022/04/24 00:26:54;;;;;;;14.20;10.23;;;;;;;15.02;62.30;100859.83;1635888;86;21525;-66
2022/04/24 00:29:21;;;;;;;11.75;9.43;;;;;;;15.04;62.25;100855.38;1636508;86;21068;-66
2022/04/24 00:31:49;;;;;;;11.28;9.40;;;;;;;15.04;62.26;100854.07;1636366;86;21050;-67
2022/04/24 00:34:16;;;;;;;9.65;8.70;;;;;;;15.02;62.33;100851.48;1636077;86;21055;-66
2022/04/24 00:36:44;;;;;;;11.25;8.90;;;;;;;15.03;62.32;100853.66;1634141;86;21067;-66
2022/04/24 00:39:11;;;;;;;11.85;9.35;;;;;;;15.04;62.29;100852.76;1602544;87;21066;-66
2022/04/24 00:41:52;;;;;;;11.83;9.53;;;;;;;15.04;62.27;100861.93;1608022;89;21584;-66
2022/04/24 00:44:20;;;;;;;10.53;8.83;;;;;;;15.05;62.34;100857.07;1603944;88;21107;-66
2022/04/24 00:47:05;;;;;;;11.88;9.00;;;;;;;15.06;62.27;100861.42;1634347;86;21579;-66
2022/04/24 00:49:32;;;;;;;9.38;7.83;;;;;;;15.06;62.17;100861.42;1559597;90;21639;-66
2022/04/24 00:52:00;;;;;;;8.05;7.25;;;;;;;15.10;62.16;100869.56;1568324;90;21517;-66
2022/04/24 00:54:27;;;;;;;7.42;6.72;;;;;;;15.12;62.10;100870.35;1568513;90;21568;-66
2022/04/24 00:56:54;;;;;;;7.55;6.75;;;;;;;15.15;61.94;100874.15;1568572;90;21119;-66
2022/04/24 00:59:21;;;;;;;8.10;7.15;;;;;;;15.17;61.85;100870.56;1568608;90;21076;-66
2022/04/24 01:01:47;;;;;;;7.40;6.67;;;;;;;15.18;61.75;100874.91;1568606;90;21108;-66
2022/04/24 01:04:15;;;;;;;7.35;6.65;;;;;;;15.20;61.55;100882.25;1566645;90;21160;-66
2022/04/24 01:06:43;;;;;;;7.20;6.50;;;;;;;15.21;61.50;100889.64;1564419;90;21140;-66
2022/04/24 01:09:15;;;;;;;7.10;6.40;;;;;;;15.21;61.36;100893.12;1564517;90;21109;-65
2022/04/24 01:11:50;;;;;;;7.12;6.42;;;;;;;15.24;61.30;100898.71;1564601;90;21065;-66
2022/04/24 01:14:17;;;;;;;8.23;6.40;;;;;;;15.25;61.19;100901.75;1512750;93;21098;-66
2022/04/24 01:16:46;;;;;;;8.95;7.20;;;;;;;15.24;61.04;100906.58;1488159;95;21085;-66
2022/04/24 01:19:14;;;;;;;7.58;6.83;;;;;;;15.23;61.03;100917.95;1512740;93;21534;-66
2022/04/24 01:21:43;;;;;;;6.67;6.08;;;;;;;15.24;60.93;100920.99;1488237;95;21163;-66
2022/04/24 01:24:12;;;;;;;6.30;5.78;;;;;;;15.21;60.69;100920.64;1513071;93;21098;-66
2022/04/24 01:26:39;;;;;;;7.87;6.72;;;;;;;15.20;60.59;100929.89;1488084;95;21073;-66
2022/04/24 01:29:07;;;;;;;6.83;6.22;;;;;;;15.19;60.66;100936.03;1512756;93;21078;-65
2022/04/24 01:31:34;;;;;;;6.80;6.20;;;;;;;15.19;60.53;100941.27;1488060;95;21185;-66
2022/04/24 01:34:01;;;;;;;7.15;6.45;;;;;;;15.17;60.48;100937.85;1513005;93;21100;-66
2022/04/24 01:36:27;;;;;;;6.58;5.97;;;;;;;15.16;60.40;100942.27;1488062;96;21109;-66
2022/04/24 01:38:55;;;;;;;6.62;6.12;;;;;;;15.16;60.30;100945.33;1512640;93;21599;-66
2022/04/24 01:41:23;;;;;;;7.55;6.75;;;;;;;15.13;60.31;100946.74;1488493;95;21088;-66
2022/04/24 01:43:51;;;;;;;7.50;6.90;;;;;;;15.12;60.31;100941.12;1512843;93;21097;-66
2022/04/24 01:46:19;;;;;;;8.30;7.50;;;;;;;15.12;60.33;100935.88;1503443;93;21090;-66
2022/04/24 01:48:47;;;;;;;7.95;7.15;;;;;;;15.08;60.29;100932.97;1561088;91;21062;-66
2022/04/24 01:51:14;;;;;;;7.65;6.95;;;;;;;15.07;60.20;100939.11;1529550;93;21093;-67
2022/04/24 01:53:42;;;;;;;7.35;6.62;;;;;;;15.02;60.26;100938.44;1526307;93;21629;-66
2022/04/24 01:56:10;;;;;;;8.85;8.05;;;;;;;15.01;60.35;100939.34;1524463;93;21038;-66
2022/04/24 01:58:38;;;;;;;8.80;7.97;;;;;;;15.00;60.33;100948.13;1523155;93;21587;-66
2022/04/24 02:01:06;;;;;;;8.73;7.80;;;;;;;15.00;60.34;100945.51;1523480;93;21617;-66
2022/04/24 02:03:35;;;;;;;8.70;7.87;;;;;;;14.99;60.26;100943.78;1520026;93;21151;-66
2022/04/24 02:06:04;;;;;;;8.93;8.03;;;;;;;14.98;60.27;100947.33;1519132;94;21196;-66
2022/04/24 02:11:04;;;;;;;9.13;8.08;;;;;;;14.96;60.20;100946.53;1520711;91;21667;-66
2022/04/24 02:13:31;;;;;;;9.80;7.20;;;;;;;14.95;60.18;100952.67;1550841;92;21094;-66
2022/04/24 02:15:58;;;;;;;12.33;8.15;;;;;;;14.94;60.13;100945.73;1550960;91;21130;-67
2022/04/24 02:18:27;;;;;;;10.18;7.12;;;;;;;14.93;60.03;100942.70;1539716;91;21639;-66
2022/04/24 02:20:53;;;;;;;9.80;6.85;;;;;;;14.91;59.96;100938.83;1551031;91;21059;-66
2022/04/24 02:23:20;;;;;;;11.60;7.12;;;;;;;14.89;59.76;100941.10;1551238;91;21571;-66
2022/04/24 02:25:48;;;;;;;10.05;7.12;;;;;;;14.80;59.63;100938.80;1540741;91;21119;-66
2022/04/24 02:28:15;;;;;;;7.95;7.15;;;;;;;14.73;59.74;100942.57;1551105;91;21091;-66
2022/04/24 02:30:42;;;;;;;10.60;7.78;;;;;;;14.71;59.77;100947.01;1545252;91;21111;-66
2022/04/24 02:33:09;;;;;;;10.10;7.58;;;;;;;14.67;59.61;100943.17;1551064;92;21615;-66
2022/04/24 02:35:35;;;;;;;9.95;7.53;;;;;;;14.61;59.58;100941.25;1550985;91;21091;-66
2022/04/24 02:38:02;;;;;;;10.35;7.50;;;;;;;14.54;59.68;100947.16;1545392;93;21136;-66
2022/04/24 02:40:30;;;;;;;11.63;7.97;;;;;;;14.50;59.79;100950.78;1526460;94;21087;-66
2022/04/24 02:42:58;;;;;;;11.10;7.90;;;;;;;14.51;59.80;100945.94;1551190;91;21166;-67
2022/04/24 02:45:24;;;;;;;10.53;7.40;;;;;;;14.51;59.85;100953.79;1545231;91;21583;-67
2022/04/24 02:47:51;;;;;;;11.15;7.70;;;;;;;14.52;59.80;100955.52;1551142;92;21091;-67
2022/04/24 02:50:18;;;;;;;10.68;8.28;;;;;;;14.52;59.75;100965.98;1551004;91;21104;-67
2022/04/24 02:52:48;;;;;;;10.95;8.10;;;;;;;14.52;59.69;100962.06;1540642;91;21149;-67
2022/04/24 02:55:15;;;;;;;9.30;8.10;;;;;;;14.51;59.71;100965.58;1551257;91;21074;-67
2022/04/24 02:57:43;;;;;;;12.05;8.75;;;;;;;14.49;59.63;100958.22;1545255;91;21139;-64
2022/04/24 03:00:12;;;;;;;13.32;9.13;;;;;;;14.45;59.73;100977.56;1526582;94;21039;-67
2022/04/24 03:02:44;;;;;;;14.45;9.28;;;;;;;14.40;59.89;100975.58;1540959;93;21652;-65
2022/04/24 03:05:14;;;;;;;14.50;9.93;;;;;;;14.37;60.16;100979.59;1556050;91;21105;-65
2022/04/24 03:07:42;;;;;;;17.52;10.70;;;;;;;14.33;60.41;100977.98;1504061;93;21141;-67
2022/04/24 03:10:09;;;;;;;14.07;10.58;;;;;;;14.31;60.60;100990.27;1534404;92;21146;-67
2022/04/24 03:12:38;;;;;;;15.63;10.32;;;;;;;14.30;60.62;100987.23;1547088;93;21090;-66
2022/04/24 03:15:08;;;;;;;17.05;10.80;;;;;;;14.33;60.83;100992.83;1512195;93;21037;-66
2022/04/24 03:17:34;;;;;;;16.40;11.18;;;;;;;14.33;60.92;100992.38;1547104;91;21109;-66
2022/04/24 03:20:05;;;;;;;16.30;10.93;;;;;;;14.37;60.95;100984.83;1546900;91;21128;-65
2022/04/24 03:22:33;;;;;;;19.62;11.28;;;;;;;14.42;60.89;100988.61;1547106;91;21574;-66
2022/04/24 03:25:02;;;;;;;19.23;11.57;;;;;;;14.47;60.77;100997.14;1536961;91;21661;-66
2022/04/24 03:27:30;;;;;;;19.10;13.40;;;;;;;14.51;60.79;100999.61;1546950;91;21105;-66
2022/04/24 03:29:57;;;;;;;16.97;13.38;;;;;;;14.56;61.32;101005.56;1547116;91;21126;-65
2022/04/24 03:32:24;;;;;;;19.98;14.25;;;;;;;14.58;61.85;101012.91;1546952;91;21608;-66
2022/04/24 03:34:53;;;;;;;20.82;15.13;;;;;;;14.62;62.29;101015.83;1544835;93;21023;-66
2022/04/24 03:37:20;;;;;;;22.22;14.87;;;;;;;14.64;62.71;101021.87;1547142;91;21097;-66
2022/04/24 03:39:47;;;;;;;19.05;14.68;;;;;;;14.68;62.91;101023.47;1547052;91;21122;-66
2022/04/24 03:42:15;;;;;;;20.43;14.45;;;;;;;14.72;63.10;101028.59;1546970;91;21090;-66
2022/04/24 03:44:43;;;;;;;21.77;15.05;;;;;;;14.75;63.25;101035.91;1547154;91;21078;-67
2022/04/24 03:47:10;;;;;;;19.73;15.15;;;;;;;14.79;63.37;101047.13;1547036;91;21589;-66
2022/04/24 03:49:37;;;;;;;20.35;14.93;;;;;;;14.80;63.54;101044.45;1544994;91;21173;-66
2022/04/24 03:52:06;;;;;;;20.02;14.30;;;;;;;14.86;63.64;101044.72;1546838;93;21126;-67
2022/04/24 03:54:33;;;;;;;21.15;15.32;;;;;;;14.91;63.58;101046.26;1547156;91;21042;-66
2022/04/24 03:57:00;;;;;;;23.65;16.52;;;;;;;14.96;63.51;101050.03;1547161;91;21562;-67
2022/04/24 03:59:27;;;;;;;21.65;16.12;;;;;;;14.98;63.52;101050.84;1547186;91;21062;-66
2022/04/24 04:01:54;;;;;;;20.70;15.60;;;;;;;15.02;63.57;101056.38;1546875;91;21142;-66
2022/04/24 04:04:25;;;;;;;21.45;15.38;;;;;;;15.07;63.57;101064.91;1547101;91;21109;-66
2022/04/24 04:06:52;;;;;;;22.85;15.88;;;;;;;15.11;63.55;101066.51;1547086;91;21077;-66
2022/04/24 04:09:19;;;;;;;21.50;15.20;;;;;;;15.14;63.62;101069.04;1547159;91;21107;-66
2022/04/24 04:11:47;;;;;;;18.60;14.45;;;;;;;15.16;63.66;101072.46;1606344;88;21070;-66
2022/04/24 04:14:15;;;;;;;20.20;15.93;;;;;;;15.20;63.80;101074.92;1608426;88;21558;-66
2022/04/24 04:16:42;;;;;;;17.55;14.70;;;;;;;15.27;63.75;101076.88;1612463;88;21062;-66
2022/04/24 04:19:09;;;;;;;19.40;15.65;;;;;;;15.33;63.58;101076.17;1613509;88;21066;-67
2022/04/24 04:21:36;;;;;;;23.20;16.40;;;;;;;15.37;63.62;101078.25;1613612;88;21090;-66
2022/04/24 04:24:08;;;;;;;20.50;15.83;;;;;;;15.41;63.56;101075.44;1613363;88;21591;-67
2022/04/24 04:26:36;;;;;;;19.90;15.00;;;;;;;15.44;63.64;101081.06;1613783;87;21086;-66
2022/04/24 04:29:03;;;;;;;20.85;15.80;;;;;;;15.48;63.69;101081.84;1612683;87;21112;-67
2022/04/24 04:31:30;;;;;;;19.77;15.63;;;;;;;15.52;63.74;101091.30;1612897;87;21626;-66
2022/04/24 04:33:59;;;;;;;18.62;15.65;;;;;;;15.55;63.72;101090.72;1612177;87;21121;-66
2022/04/24 04:36:26;;;;;;;17.73;15.53;;;;;;;15.58;63.69;101102.40;1611810;88;21032;-67
2022/04/24 04:38:53;;;;;;;18.23;14.18;;;;;;;15.60;63.62;101099.27;1611115;87;21087;-65
2022/04/24 04:41:21;;;;;;;19.52;15.38;;;;;;;15.57;63.70;101102.02;1610783;87;21110;-65
2022/04/24 04:43:49;;;;;;;19.80;14.93;;;;;;;15.57;63.84;101099.39;1612781;87;21063;-67
2022/04/24 04:46:16;;;;;;;15.85;13.80;;;;;;;15.59;63.89;101098.02;1602352;87;21577;-66
2022/04/24 04:48:44;;;;;;;20.17;16.15;;;;;;;15.63;63.84;101102.23;1603126;87;21112;-66
2022/04/24 04:51:11;;;;;;;18.98;15.38;;;;;;;15.63;63.75;101100.48;1602006;87;21060;-66
2022/04/24 04:53:38;;;;;;;18.45;14.55;;;;;;;15.64;63.67;101094.30;1602497;87;21071;-66
2022/04/24 04:56:05;;;;;;;18.87;15.08;;;;;;;15.66;63.73;101104.28;1604580;89;21070;-66
2022/04/24 04:58:32;;;;;;;20.32;15.08;;;;;;;15.69;63.59;101103.31;1601392;87;21108;-66
2022/04/24 05:01:00;;;;;;;20.27;15.63;;;;;;;15.71;63.35;101111.54;1602549;87;21049;-66
2022/04/24 05:03:30;;;;;;;21.05;14.90;;;;;;;15.70;63.41;101121.65;1607913;87;21060;-65
2022/04/24 05:05:59;;;;;;;18.32;15.15;;;;;;;15.70;63.33;101120.34;1594427;88;21090;-67
2022/04/24 05:08:26;;;;;;;20.37;15.32;;;;;;;15.71;63.43;101118.55;1596851;89;21585;-66
2022/04/24 05:10:54;;;;;;;19.37;14.75;;;;;;;15.72;63.40;101118.52;1633647;86;21060;-66
2022/04/24 05:13:23;;;;;;;17.25;15.45;;;;;;;15.76;63.38;101121.42;1642503;86;21096;-65
2022/04/24 05:15:50;;;;;;;18.82;14.23;;;;;;;15.79;63.42;101113.42;1636317;86;21503;-66
2022/04/24 05:18:19;;;;;;;22.13;15.35;;;;;;;15.84;63.27;101114.11;1634461;86;21030;-65
2022/04/24 05:20:47;;;;;;;19.75;14.73;;;;;;;15.88;63.08;101119.64;1633427;86;21516;-66
2022/04/24 05:23:15;;;;;;;18.37;15.83;;;;;;;15.87;62.92;101109.19;1602655;87;21078;-66
2022/04/24 05:25:42;;;;;;;22.30;15.00;;;;;;;15.87;62.95;101113.98;1607025;88;21084;-66
2022/04/24 05:28:09;;;;;;;17.45;15.03;;;;;;;15.90;62.95;101120.89;1634758;86;21519;-66
2022/04/24 05:30:36;;;;;;;17.95;14.98;;;;;;;15.92;62.86;101115.99;1634230;87;21093;-66
2022/04/24 05:33:04;;;;;;;18.55;15.08;;;;;;;15.95;62.82;101115.86;1609239;87;21513;-66
2022/04/24 05:35:31;;;;;;;22.42;15.90;;;;;;;15.99;62.97;101120.08;1596020;88;21555;-65
2022/04/24 05:37:58;;;;;;;18.15;15.18;;;;;;;16.18;63.31;101118.47;1639883;87;21061;-66
2022/04/24 05:40:26;;;;;;;15.50;13.90;;;;;;;16.48;63.21;101122.11;1637518;86;21084;-65
2022/04/24 05:42:54;;;;;;;17.92;13.58;;;;;;;16.90;62.49;101136.14;1636209;86;21116;-65
2022/04/24 05:45:24;;;;;;;15.40;13.90;;;;;;;17.26;61.27;101130.66;1638544;86;21566;-65
2022/04/24 05:47:56;;;;;;;17.05;14.43;;;;;;;17.63;60.22;101136.05;1635803;86;21078;-66
2022/04/24 05:50:23;;;;;;;14.60;12.93;;;;;;;17.98;59.02;101142.35;1636243;86;21046;-65
2022/04/24 05:52:55;;;;;;;14.03;12.58;;;;;;;18.35;57.93;101141.48;1627676;86;21036;-65
2022/04/24 05:55:24;;;;;;;15.58;12.90;;;;;;;18.79;56.79;101133.64;1631647;86;21076;-65
2022/04/24 05:57:53;;;;;;;14.63;13.10;;;;;;;19.28;55.48;101146.06;1602388;87;21082;-65
2022/04/24 06:00:21;;;;;;;13.78;12.35;;;;;;;19.67;53.85;101143.62;1591838;89;21110;-65
2022/04/24 06:02:49;;;;;;;14.87;11.57;;;;;;;19.94;52.74;101140.36;1602240;87;21062;-65
2022/04/24 06:05:16;;;;;;;14.78;12.25;;;;;;;20.25;52.14;101140.42;1603012;87;21092;-65
2022/04/24 06:07:43;;;;;;;16.12;12.37;;;;;;;20.79;51.19;101143.53;1595918;88;21106;-65
2022/04/24 06:10:11;;;;;;;16.62;12.30;;;;;;;21.32;49.30;101150.98;1637952;86;21500;-64
2022/04/24 06:12:49;;;;;;;12.65;11.35;;;;;;;21.53;47.89;101155.86;1642074;86;21046;-65
2022/04/24 06:15:21;;;;;;;14.87;11.38;;;;;;;21.64;47.46;101150.73;1597108;89;21034;-65
2022/04/24 06:17:50;;;;;;;13.48;11.35;;;;;;;21.80;46.93;101161.27;1599784;89;21099;-65
2022/04/24 06:20:18;;;;;;;14.75;11.83;;;;;;;21.88;46.47;101166.97;1601191;89;21038;-65
2022/04/24 06:22:50;;;;;;;14.75;11.38;;;;;;;21.86;45.88;101167.53;1600692;89;21555;-65
2022/04/24 06:25:31;;;;;;;12.40;11.00;;;;;;;21.71;46.12;101175.06;1541081;91;21083;-65
2022/04/24 06:27:58;;;;;;;14.38;11.48;;;;;;;21.73;46.28;101170.05;1518574;93;21086;-65
2022/04/24 06:30:28;;;;;;;15.78;12.18;;;;;;;21.82;46.39;101167.35;1469284;96;21113;-65
2022/04/24 06:33:01;;;;;;;13.18;11.78;;;;;;;21.96;45.72;101173.97;1523270;93;21092;-65
2022/04/24 06:35:28;;;;;;;13.05;11.48;;;;;;;22.10;45.18;101163.35;1506471;94;21080;-65
2022/04/24 06:37:55;;;;;;;13.75;11.75;;;;;;;22.25;45.01;101171.67;1523284;93;21092;-66
2022/04/24 06:40:24;;;;;;;12.53;11.28;;;;;;;22.45;44.40;101168.59;1522527;93;21135;-65
2022/04/24 06:43:01;;;;;;;15.30;11.97;;;;;;;22.65;44.24;101168.17;1523716;93;21063;-65
2022/04/24 06:45:36;;;;;;;13.48;11.53;;;;;;;22.85;43.98;101159.39;1426640;100;21227;-65
2022/04/24 06:50:40;;;;;;;13.08;11.50;;;;;;;23.06;42.57;101161.96;1370927;102;21655;-65
2022/04/24 06:53:11;;;;;;;13.20;11.78;;;;;;;22.78;42.17;101151.45;1424560;101;21183;-64
2022/04/24 06:55:41;;;;;;;13.08;11.45;;;;;;;22.31;42.57;101154.52;1394078;102;21123;-65
2022/04/24 06:58:10;;;;;;;13.53;11.40;;;;;;;21.95;43.69;101161.65;1377603;103;21155;-65
2022/04/24 07:00:40;;;;;;;12.82;11.45;;;;;;;21.85;44.19;101160.52;1379531;103;21148;-65
2022/04/24 07:03:14;;;;;;;13.10;11.70;;;;;;;21.74;44.29;101160.31;1375138;103;21668;-65
2022/04/24 07:05:42;;;;;;;13.25;11.83;;;;;;;21.62;44.64;101162.36;1378311;102;21484;-64
2022/04/24 07:08:10;;;;;;;12.68;11.40;;;;;;;21.61;44.52;101164.65;1417880;100;21140;-65
2022/04/24 07:10:38;;;;;;;14.07;11.95;;;;;;;21.56;44.92;101165.38;1417841;101;21113;-65
2022/04/24 07:13:06;;;;;;;14.28;11.53;;;;;;;21.62;45.00;101166.34;1417037;101;21132;-65
2022/04/24 07:15:39;;;;;;;14.25;10.63;;;;;;;21.70;44.60;101163.60;1416167;99;21705;-66
2022/04/24 07:18:08;;;;;;;17.45;11.78;;;;;;;21.82;44.37;101162.05;1415693;101;21148;-63
2022/04/24 07:20:36;;;;;;;13.45;12.07;;;;;;;21.95;43.95;101164.30;1417278;100;21223;-64
2022/04/24 07:23:08;;;;;;;12.20;10.90;;;;;;;21.97;43.60;101153.62;1424271;100;21587;-64
2022/04/24 07:25:41;;;;;;;15.00;11.18;;;;;;;22.01;44.12;101153.31;1403611;102;21627;-65
2022/04/24 07:28:08;;;;;;;13.68;11.22;;;;;;;22.14;43.70;101154.72;1417925;100;21180;-65
2022/04/24 07:30:35;;;;;;;12.93;11.10;;;;;;;22.18;43.74;101164.18;1418978;100;21115;-65
2022/04/24 07:33:04;;;;;;;12.60;11.00;;;;;;;22.24;44.10;101166.44;1420582;99;21175;-65
2022/04/24 07:35:35;;;;;;;14.53;11.33;;;;;;;22.33;43.82;101166.73;1420493;100;21180;-64
2022/04/24 07:38:02;;;;;;;12.63;10.60;;;;;;;22.40;43.96;101163.22;1411145;101;21166;-64
2022/04/24 07:40:32;;;;;;;16.48;10.35;;;;;;;22.43;43.19;101169.63;1414045;101;21188;-65
2022/04/24 07:43:02;;;;;;;14.55;10.30;;;;;;;22.41;43.32;101167.09;1423613;99;21150;-64
2022/04/24 07:45:40;;;;;;;11.45;10.20;;;;;;;22.28;42.49;101162.17;1422399;100;21103;-66
2022/04/24 07:48:10;;;;;;;11.65;10.03;;;;;;;22.05;42.80;101163.27;1421009;100;21176;-64
2022/04/24 07:50:39;;;;;;;12.25;10.43;;;;;;;21.82;43.30;101170.00;1447893;98;21127;-64
2022/04/24 07:53:07;;;;;;;12.20;10.82;;;;;;;21.68;44.12;101172.58;1488602;95;21135;-64
2022/04/24 07:55:35;;;;;;;11.18;9.98;;;;;;;21.66;44.79;101177.12;1489061;95;21114;-64
2022/04/24 07:58:03;;;;;;;13.32;10.53;;;;;;;21.66;44.51;101177.12;1495839;95;21582;-64
2022/04/24 08:00:32;;;;;;;11.83;9.73;;;;;;;21.69;44.97;101180.92;1495465;95;21615;-64
2022/04/24 08:03:03;;;;;;;13.75;10.18;;;;;;;21.74;44.79;101185.48;1489331;95;21591;-64
2022/04/24 08:05:46;;;;;;;10.95;9.75;;;;;;;21.79;45.06;101186.89;1492136;95;21155;-64
2022/04/24 08:08:16;;;;;;;14.80;10.23;;;;;;;21.88;45.53;101195.25;1502387;95;21069;-66
2022/04/24 08:10:47;;;;;;;16.97;11.50;;;;;;;21.94;45.11;101190.44;1501927;95;21050;-65
2022/04/24 08:13:16;;;;;;;16.60;11.00;;;;;;;22.00;44.86;101189.19;1498556;95;21462;-65
2022/04/24 08:15:43;;;;;;;17.82;11.05;;;;;;;22.05;44.50;101193.25;1503082;95;22479;-65
2022/04/24 08:18:11;;;;;;;16.25;11.12;;;;;;;22.11;44.36;101203.50;1503430;95;21048;-65
2022/04/24 08:20:42;;;;;;;15.08;10.05;;;;;;;22.15;44.18;101203.69;1503989;95;21072;-65
2022/04/24 08:23:10;;;;;;;15.58;11.57;;;;;;;22.19;44.12;101202.55;1504305;95;21603;-65
2022/04/24 08:25:37;;;;;;;16.42;12.85;;;;;;;22.22;43.86;101215.59;1494722;95;21059;-65
2022/04/24 08:28:09;;;;;;;16.82;13.15;;;;;;;22.22;43.73;101211.61;1504239;95;21072;-65
2022/04/24 08:30:40;;;;;;;18.87;14.03;;;;;;;22.17;43.84;101211.53;1460356;97;21076;-65
2022/04/24 08:33:08;;;;;;;20.75;14.13;;;;;;;22.07;43.93;101218.36;1445773;97;21105;-65
2022/04/24 08:35:35;;;;;;;20.48;13.93;;;;;;;21.97;44.28;101211.42;1544041;91;21597;-65
2022/04/24 08:38:03;;;;;;;19.80;13.88;;;;;;;21.92;44.53;101225.91;1551894;92;21011;-65
2022/04/24 08:40:32;;;;;;;22.45;13.15;;;;;;;21.84;44.53;101223.73;1540599;92;21598;-65
2022/04/24 08:43:00;;;;;;;21.62;13.95;;;;;;;21.79;44.31;101227.09;1551644;91;21082;-65
2022/04/24 08:45:30;;;;;;;21.05;13.98;;;;;;;21.70;44.55;101222.38;1552862;91;21060;-65
2022/04/24 08:47:58;;;;;;;19.10;14.25;;;;;;;21.63;44.79;101222.34;1551553;91;21531;-65
2022/04/24 08:50:31;;;;;;;28.40;14.93;;;;;;;21.55;44.87;101221.95;1540291;91;21129;-65
2022/04/24 08:52:58;;;;;;;19.40;14.20;;;;;;;21.46;45.03;101218.05;1540219;91;21566;-66
2022/04/24 08:55:27;;;;;;;25.50;14.15;;;;;;;21.36;45.12;101218.69;1551294;91;21139;-65
2022/04/24 08:57:54;;;;;;;19.77;14.90;;;;;;;21.29;45.36;101221.33;1545476;91;21112;-65
2022/04/24 09:00:20;;;;;;;21.50;14.98;;;;;;;21.22;45.59;101224.80;1555103;92;21610;-64
2022/04/24 09:02:49;;;;;;;24.30;13.90;;;;;;;21.18;45.83;101227.70;1541500;92;21058;-65
2022/04/24 09:05:16;;;;;;;19.90;14.18;;;;;;;21.12;46.13;101236.00;1552076;91;21546;-64
2022/04/24 09:10:12;;;;;;;22.15;14.53;;;;;;;21.05;46.61;101239.00;1506517;94;21197;-65
2022/04/24 09:12:40;;;;;;;19.10;14.40;;;;;;;21.06;46.83;101242.02;1536294;92;21062;-65
2022/04/24 09:15:09;;;;;;;27.07;14.78;;;;;;;21.07;46.62;101238.91;1535534;92;21027;-65
2022/04/24 09:17:36;;;;;;;20.70;14.85;;;;;;;21.08;46.36;101245.06;1488243;95;21101;-64
2022/04/24 09:20:19;;;;;;;21.42;15.08;;;;;;;21.05;46.44;101241.65;1536142;92;21539;-65
2022/04/24 09:22:48;;;;;;;18.02;14.07;;;;;;;21.02;46.31;101247.09;1519988;93;21120;-64
2022/04/24 09:25:15;;;;;;;21.45;14.83;;;;;;;20.97;46.29;101251.78;1520346;93;21126;-65
2022/04/24 09:27:42;;;;;;;22.75;14.45;;;;;;;20.89;46.12;101260.63;1514454;93;21092;-65
2022/04/24 09:30:13;;;;;;;19.00;14.78;;;;;;;20.75;46.28;101253.08;1524049;94;21524;-65
2022/04/24 09:32:50;;;;;;;17.50;15.03;;;;;;;20.62;46.66;101254.23;1523471;94;21100;-65
2022/04/24 09:35:31;;;;;;;19.17;15.25;;;;;;;20.53;46.72;101261.33;1523771;93;21095;-65
2022/04/24 09:38:17;;;;;;;17.77;15.23;;;;;;;20.40;46.76;101262.95;1523979;93;21091;-64
2022/04/24 09:40:48;;;;;;;20.90;15.28;;;;;;;20.28;47.25;101260.11;1469755;96;21110;-65
2022/04/24 09:43:19;;;;;;;17.42;14.90;;;;;;;20.21;47.46;101256.94;1435510;98;21163;-65
2022/04/24 09:45:50;;;;;;;17.65;15.75;;;;;;;20.19;47.78;101254.81;1439552;98;21140;-65
2022/04/24 09:48:20;;;;;;;20.48;16.42;;;;;;;20.21;47.67;101247.23;1378300;102;21175;-65
2022/04/24 09:50:49;;;;;;;19.40;16.27;;;;;;;20.22;47.74;101243.64;1372470;103;21179;-65
2022/04/24 09:53:19;;;;;;;20.52;16.93;;;;;;;20.23;47.63;101253.75;1380247;103;21161;-65
2022/04/24 09:55:51;;;;;;;21.65;16.67;;;;;;;20.23;47.55;101249.78;1379445;102;21149;-65
2022/04/24 09:58:20;;;;;;;21.23;17.45;;;;;;;20.20;47.44;101243.33;1372636;103;21161;-64
2022/04/24 10:00:47;;;;;;;22.93;16.75;;;;;;;20.15;47.59;101244.86;1364117;103;21671;-65
2022/04/24 10:03:17;;;;;;;19.17;16.67;;;;;;;20.13;47.64;101241.94;1359804;103;21144;-65
2022/04/24 10:05:47;;;;;;;24.90;17.48;;;;;;;20.08;47.85;101249.23;1360188;104;21184;-65
2022/04/24 10:08:19;;;;;;;19.62;16.50;;;;;;;20.03;48.03;101249.97;1376348;103;21128;-65
2022/04/24 10:10:47;;;;;;;17.87;15.80;;;;;;;19.98;48.13;101249.34;1375528;103;21132;-64
2022/04/24 10:13:15;;;;;;;20.60;16.52;;;;;;;19.93;48.21;101247.39;1370778;103;21132;-65
2022/04/24 10:16:09;;;;;;;24.25;16.48;;;;;;;19.89;48.34;101246.71;1372620;103;21233;-64
2022/04/24 10:18:42;;;;;;;25.50;16.67;;;;;;;19.85;48.49;101242.98;1395308;101;21196;-65
2022/04/24 10:21:49;;;;;;;21.57;17.40;;;;;;;19.79;48.45;101243.30;1365389;104;21179;-65
2022/04/24 10:24:17;;;;;;;20.40;16.50;;;;;;;19.76;48.52;101248.77;1367101;104;21238;-65
2022/04/24 10:26:54;;;;;;;18.73;16.77;;;;;;;19.70;48.88;101251.72;1366692;104;21624;-65
2022/04/24 10:29:23;;;;;;;19.15;16.90;;;;;;;19.66;48.89;101247.53;1364083;104;21170;-65
2022/04/24 10:31:52;;;;;;;21.12;17.27;;;;;;;19.62;48.94;101248.62;1365042;103;21145;-65
2022/04/24 10:34:20;;;;;;;20.82;17.23;;;;;;;19.55;49.14;101243.25;1365565;104;21229;-64
2022/04/24 10:37:00;;;;;;;20.43;16.70;;;;;;;19.52;49.37;101243.39;1365106;104;21161;-65
2022/04/24 10:39:30;;;;;;;22.73;16.52;;;;;;;19.52;49.47;101250.86;1362211;103;21125;-64
2022/04/24 10:42:11;;;;;;;21.45;17.40;;;;;;;19.54;49.66;101244.20;1388717;103;21223;-65
2022/04/24 10:44:51;;;;;;;22.17;16.10;;;;;;;19.59;50.01;101243.48;1391579;102;21120;-64
2022/04/24 10:47:20;;;;;;;19.95;15.68;;;;;;;19.67;49.96;101242.63;1428415;100;21136;-65
2022/04/24 10:49:46;;;;;;;19.60;17.23;;;;;;;19.77;49.72;101235.47;1423177;98;21085;-65
2022/04/24 10:52:13;;;;;;;18.25;15.60;;;;;;;19.86;49.62;101239.42;1442485;97;21608;-65
2022/04/24 10:54:41;;;;;;;21.10;16.60;;;;;;;19.95;49.57;101236.28;1447727;97;21126;-65
2022/04/24 10:57:18;;;;;;;19.85;15.58;;;;;;;20.02;49.42;101241.18;1449225;97;21087;-65
2022/04/24 10:59:48;;;;;;;18.48;16.57;;;;;;;20.12;49.29;101244.17;1458495;97;21147;-65
2022/04/24 11:02:22;;;;;;;21.70;17.12;;;;;;;20.18;49.13;101235.45;1449332;97;21108;-65
2022/04/24 11:05:06;;;;;;;17.80;15.85;;;;;;;20.23;48.95;101237.89;1434981;97;21193;-65
2022/04/24 11:07:35;;;;;;;21.17;16.95;;;;;;;20.27;48.82;101236.79;1443897;97;21616;-65
2022/04/24 11:10:06;;;;;;;20.72;16.15;;;;;;;20.29;48.69;101225.67;1439216;98;21093;-65
2022/04/24 11:12:35;;;;;;;21.45;17.35;;;;;;;20.32;48.48;101232.09;1441242;98;21139;-65
2022/04/24 11:15:05;;;;;;;20.02;17.07;;;;;;;20.34;48.59;101222.78;1443167;98;21161;-65
2022/04/24 11:17:32;;;;;;;18.45;16.32;;;;;;;20.36;48.54;101219.09;1442062;99;21575;-65
2022/04/24 11:20:08;;;;;;;19.07;16.85;;;;;;;20.38;48.41;101211.93;1443209;98;21089;-64
2022/04/24 11:22:43;;;;;;;18.07;15.35;;;;;;;20.41;48.32;101217.06;1426828;99;21129;-65
2022/04/24 11:25:14;;;;;;;19.50;16.02;;;;;;;20.44;48.27;101212.08;1468659;97;21137;-65
2022/04/24 11:27:46;;;;;;;19.70;16.30;;;;;;;20.46;48.15;101215.50;1488097;95;21107;-65
2022/04/24 11:30:21;;;;;;;19.05;16.27;;;;;;;20.43;48.23;101220.48;1487808;95;21563;-64